Time;durP1;ratioP1;P1;durP2;ratioP2;P2;SDS_P1;SDS_P2;PMS_P1;PMS_P2;Temp;Humidity;BMP_temperature;BMP_pressure;BME280_temperature;BME280_humidity;BME280_pressure;Samples;Min_cycle;Max_cycle;Signal;HPM_P1;HPM_P2
2022/10/10 00:00:37;;;;;;;0.60;0.60;;;9.90;99.90;;;;;;5106291;28;20197;-80
2022/10/10 00:03:04;;;;;;;0.60;0.60;;;9.90;99.90;;;;;;5107514;28;20190;-81
2022/10/10 00:05:29;;;;;;;0.60;0.60;;;9.90;99.90;;;;;;5106752;28;20654;-82
2022/10/10 00:07:55;;;;;;;0.50;0.50;;;9.90;99.90;;;;;;5107868;28;20188;-82
2022/10/10 00:10:21;;;;;;;0.60;0.60;;;9.90;99.90;;;;;;5108220;28;20923;-82
2022/10/10 00:12:47;;;;;;;0.53;0.53;;;9.80;99.90;;;;;;5110314;28;20174;-81
2022/10/10 00:15:13;;;;;;;0.60;0.60;;;9.90;99.90;;;;;;5110130;28;20247;-81
2022/10/10 00:17:39;;;;;;;0.67;0.67;;;9.90;99.90;;;;;;5109554;28;20214;-83
2022/10/10 00:20:05;;;;;;;0.60;0.60;;;9.90;99.90;;;;;;5109519;28;20227;-80
2022/10/10 00:22:31;;;;;;;0.50;0.50;;;9.90;99.90;;;;;;5110008;28;20230;-82
2022/10/10 00:24:57;;;;;;;0.50;0.50;;;9.80;99.90;;;;;;5109033;28;20178;-81
2022/10/10 00:27:23;;;;;;;0.43;0.43;;;9.80;99.90;;;;;;5109838;28;20177;-82
2022/10/10 00:29:48;;;;;;;0.60;0.60;;;9.80;99.90;;;;;;5109811;28;20173;-82
2022/10/10 00:32:14;;;;;;;0.50;0.50;;;9.80;99.90;;;;;;5110208;28;20238;-83
2022/10/10 00:34:39;;;;;;;0.50;0.50;;;9.80;99.90;;;;;;5112510;28;20186;-81
2022/10/10 00:37:05;;;;;;;0.57;0.57;;;9.80;99.90;;;;;;5118025;28;20193;-83
2022/10/10 00:39:30;;;;;;;0.50;0.50;;;9.80;99.90;;;;;;5117966;28;20340;-86
2022/10/10 00:41:56;;;;;;;0.60;0.60;;;9.80;99.90;;;;;;5115231;28;20200;-82
2022/10/10 00:44:22;;;;;;;0.53;0.53;;;9.80;99.90;;;;;;5099366;28;21539;-81
2022/10/10 00:46:47;;;;;;;0.60;0.60;;;9.80;99.90;;;;;;5099460;28;20547;-81
2022/10/10 00:49:24;;;;;;;0.53;0.53;;;9.80;99.90;;;;;;5101878;28;20200;-81
2022/10/10 00:51:55;;;;;;;0.60;0.60;;;9.90;99.90;;;;;;5102960;28;20603;-81
2022/10/10 00:54:23;;;;;;;0.60;0.60;;;9.90;99.90;;;;;;5092468;28;20174;-81
2022/10/10 00:57:00;;;;;;;0.60;0.60;;;9.90;99.90;;;;;;5093774;28;20580;-82
2022/10/10 00:59:29;;;;;;;0.60;0.60;;;9.90;99.90;;;;;;5101348;28;20169;-83
2022/10/10 01:01:55;;;;;;;0.50;0.50;;;9.80;99.90;;;;;;5103973;28;20217;-82
2022/10/10 01:04:42;;;;;;;0.60;0.60;;;10.10;99.90;;;;;;5099262;28;20216;-82
2022/10/10 01:07:19;;;;;;;0.50;0.50;;;9.70;99.90;;;;;;5102858;28;20637;-81
2022/10/10 01:09:46;;;;;;;0.50;0.50;;;9.70;99.90;;;;;;5103934;28;20577;-82
2022/10/10 01:12:36;;;;;;;0.60;0.60;;;9.70;99.90;;;;;;5101992;28;20204;-81
2022/10/10 01:15:14;;;;;;;0.50;0.50;;;9.70;99.90;;;;;;5103840;28;20174;-80
2022/10/10 01:17:53;;;;;;;0.60;0.60;;;9.70;99.90;;;;;;5104690;28;20652;-81
2022/10/10 01:20:46;;;;;;;0.53;0.53;;;9.70;99.90;;;;;;5103586;28;20693;-81
2022/10/10 01:23:40;;;;;;;0.50;0.50;;;9.80;99.90;;;;;;5104120;28;20170;-81
2022/10/10 01:26:33;;;;;;;0.53;0.53;;;9.80;99.90;;;;;;5103262;28;20169;-80
2022/10/10 01:29:20;;;;;;;0.60;0.60;;;9.70;99.90;;;;;;5107524;28;20161;-81
2022/10/10 01:31:50;;;;;;;0.57;0.57;;;9.80;99.90;;;;;;5112638;28;20192;-80
2022/10/10 01:34:33;;;;;;;0.50;0.50;;;9.80;99.90;;;;;;5116617;28;20182;-83
2022/10/10 01:37:13;;;;;;;0.60;0.60;;;9.80;99.90;;;;;;5112218;28;20233;-82
2022/10/10 01:39:55;;;;;;;0.53;0.53;;;9.80;99.90;;;;;;5109046;28;20170;-81
2022/10/10 01:42:30;;;;;;;0.53;0.53;;;9.90;99.90;;;;;;5109637;28;20231;-83
2022/10/10 01:44:56;;;;;;;0.63;0.63;;;10.40;99.90;;;;;;5108775;28;20177;-83
2022/10/10 01:47:23;;;;;;;0.60;0.60;;;9.90;99.90;;;;;;5108728;28;20181;-82
2022/10/10 01:49:53;;;;;;;0.60;0.60;;;10.00;99.90;;;;;;5107891;28;20249;-83
2022/10/10 01:52:48;;;;;;;0.50;0.50;;;9.80;99.90;;;;;;5106852;28;20268;-81
2022/10/10 01:55:53;;;;;;;0.50;0.50;;;9.80;99.90;;;;;;5107022;28;20237;-81
2022/10/10 01:58:38;;;;;;;0.60;0.60;;;9.80;99.90;;;;;;5107015;28;20197;-81
2022/10/10 02:01:20;;;;;;;0.60;0.60;;;9.90;99.90;;;;;;5106921;28;20197;-80
2022/10/10 02:04:04;;;;;;;0.57;0.57;;;9.80;99.90;;;;;;5111636;28;20187;-80
2022/10/10 02:06:41;;;;;;;0.63;0.63;;;9.70;99.90;;;;;;5118114;28;20170;-80
2022/10/10 02:09:13;;;;;;;0.60;0.60;;;9.70;99.90;;;;;;5117239;28;20200;-81
2022/10/10 02:11:40;;;;;;;0.57;0.57;;;9.80;99.90;;;;;;5116437;28;20192;-79
2022/10/10 02:14:23;;;;;;;0.50;0.50;;;9.70;99.90;;;;;;5116346;28;20201;-80
2022/10/10 02:16:52;;;;;;;0.50;0.50;;;9.60;99.90;;;;;;5116331;28;20227;-81
2022/10/10 02:19:20;;;;;;;0.40;0.40;;;9.40;99.90;;;;;;5111557;28;20178;-80
2022/10/10 02:21:47;;;;;;;0.50;0.50;;;9.50;99.90;;;;;;5109562;28;20178;-81
2022/10/10 02:24:13;;;;;;;0.50;0.50;;;9.50;99.90;;;;;;5106252;28;20174;-81
2022/10/10 02:26:42;;;;;;;0.60;0.60;;;9.60;99.90;;;;;;5108355;28;20182;-80
2022/10/10 02:29:11;;;;;;;0.60;0.60;;;9.60;99.90;;;;;;5107671;28;20169;-81
2022/10/10 02:31:42;;;;;;;0.60;0.60;;;9.60;99.90;;;;;;5108634;28;20205;-80
2022/10/10 02:34:15;;;;;;;0.60;0.60;;;9.60;99.90;;;;;;5108768;28;20178;-81
2022/10/10 02:36:46;;;;;;;0.50;0.50;;;9.60;99.90;;;;;;5110494;28;20225;-79
2022/10/10 02:39:13;;;;;;;0.50;0.50;;;9.60;99.90;;;;;;5112343;28;20181;-79
2022/10/10 02:41:41;;;;;;;0.60;0.60;;;9.70;99.90;;;;;;5111259;28;20261;-79
2022/10/10 02:44:07;;;;;;;0.50;0.50;;;9.70;99.90;;;;;;5112530;28;20166;-80
2022/10/10 02:46:32;;;;;;;0.50;0.50;;;9.90;99.90;;;;;;5112168;28;20196;-80
2022/10/10 02:49:00;;;;;;;0.50;0.50;;;9.70;99.90;;;;;;5112788;28;20193;-80
2022/10/10 02:51:26;;;;;;;0.63;0.63;;;9.70;99.90;;;;;;5106964;28;20205;-78
2022/10/10 02:53:51;;;;;;;0.50;0.50;;;9.80;99.90;;;;;;5105029;28;20563;-79
2022/10/10 02:56:17;;;;;;;0.60;0.60;;;9.80;99.90;;;;;;5108273;28;20217;-80
2022/10/10 02:58:42;;;;;;;0.60;0.60;;;9.80;99.90;;;;;;5108273;28;20170;-79
2022/10/10 03:01:09;;;;;;;0.50;0.50;;;9.90;99.90;;;;;;5107173;28;20720;-79
2022/10/10 03:03:34;;;;;;;0.50;0.50;;;9.90;99.90;;;;;;5105339;28;20217;-79
2022/10/10 03:06:01;;;;;;;0.50;0.50;;;10.20;99.90;;;;;;5111923;28;20170;-80
2022/10/10 03:08:26;;;;;;;0.50;0.50;;;9.90;99.90;;;;;;5098860;28;20615;-80
2022/10/10 03:11:00;;;;;;;0.50;0.50;;;9.90;99.90;;;;;;5085625;28;20209;-80
2022/10/10 03:13:25;;;;;;;0.50;0.50;;;9.80;99.90;;;;;;5085859;28;20175;-80
2022/10/10 03:15:52;;;;;;;0.50;0.50;;;9.70;99.90;;;;;;5086668;28;20662;-80
2022/10/10 03:18:18;;;;;;;0.60;0.60;;;9.80;99.90;;;;;;5085563;28;20178;-81
2022/10/10 03:20:55;;;;;;;0.50;0.50;;;9.70;99.90;;;;;;5086353;28;20202;-79
2022/10/10 03:23:21;;;;;;;0.60;0.60;;;9.70;99.90;;;;;;5085905;28;20236;-81
2022/10/10 03:25:47;;;;;;;0.60;0.60;;;9.80;99.90;;;;;;5084320;28;20271;-80
2022/10/10 03:28:13;;;;;;;0.40;0.40;;;9.80;99.90;;;;;;5084630;28;20185;-80
2022/10/10 03:30:39;;;;;;;0.60;0.60;;;9.80;99.90;;;;;;5085656;28;20289;-80
2022/10/10 03:33:05;;;;;;;0.60;0.60;;;9.90;99.90;;;;;;5085145;28;20280;-80
2022/10/10 03:35:31;;;;;;;0.60;0.60;;;9.90;99.90;;;;;;5084757;28;20208;-80
2022/10/10 03:37:57;;;;;;;0.60;0.60;;;10.00;99.90;;;;;;5083988;28;20277;-81
2022/10/10 03:40:23;;;;;;;0.60;0.60;;;10.00;99.90;;;;;;5093795;28;20288;-81
2022/10/10 03:42:49;;;;;;;0.60;0.60;;;9.90;99.90;;;;;;5099914;28;20248;-80
2022/10/10 03:45:14;;;;;;;0.53;0.53;;;9.80;99.90;;;;;;5097650;28;20175;-82
2022/10/10 03:47:40;;;;;;;0.60;0.60;;;9.80;99.90;;;;;;5085474;28;20179;-81
2022/10/10 03:50:06;;;;;;;0.50;0.50;;;9.80;99.90;;;;;;5083092;28;20190;-80
2022/10/10 03:52:32;;;;;;;0.50;0.50;;;9.70;99.90;;;;;;5083967;28;20213;-80
2022/10/10 03:54:57;;;;;;;0.67;0.67;;;9.70;99.90;;;;;;5096029;28;20190;-81
2022/10/10 03:57:23;;;;;;;0.60;0.60;;;9.70;99.90;;;;;;5103378;28;20209;-81
2022/10/10 03:59:48;;;;;;;0.60;0.60;;;9.80;99.90;;;;;;5104214;28;20200;-80
2022/10/10 04:02:14;;;;;;;0.70;0.70;;;9.60;99.90;;;;;;5104213;28;20170;-79
2022/10/10 04:04:39;;;;;;;0.60;0.60;;;9.60;99.90;;;;;;5105208;28;20194;-80
2022/10/10 04:07:05;;;;;;;0.50;0.50;;;9.60;99.90;;;;;;5104143;28;20619;-79
2022/10/10 04:09:30;;;;;;;0.60;0.60;;;9.60;99.90;;;;;;5104312;28;20553;-82
2022/10/10 04:11:56;;;;;;;0.63;0.63;;;9.60;99.90;;;;;;5105935;28;20181;-80
2022/10/10 04:14:22;;;;;;;0.50;0.50;;;9.60;99.90;;;;;;5106386;28;20173;-80
2022/10/10 04:16:47;;;;;;;0.70;0.70;;;9.60;99.90;;;;;;5106720;28;20250;-80
2022/10/10 04:19:13;;;;;;;0.60;0.60;;;9.60;99.90;;;;;;5106292;28;20170;-79
2022/10/10 04:21:39;;;;;;;0.60;0.60;;;9.50;99.90;;;;;;5105545;28;20209;-79
2022/10/10 04:24:05;;;;;;;0.60;0.60;;;9.60;99.90;;;;;;5106372;28;20178;-80
2022/10/10 04:26:31;;;;;;;0.60;0.60;;;9.60;99.90;;;;;;5105334;28;20188;-80
2022/10/10 04:28:56;;;;;;;0.60;0.60;;;9.50;99.90;;;;;;5106339;28;20185;-80
2022/10/10 04:31:22;;;;;;;0.50;0.50;;;9.50;99.90;;;;;;5106408;28;20217;-80
2022/10/10 04:33:48;;;;;;;0.57;0.57;;;9.40;99.90;;;;;;5107485;28;20670;-80
2022/10/10 04:36:14;;;;;;;0.60;0.60;;;9.30;99.90;;;;;;5106663;28;20200;-80
2022/10/10 04:38:39;;;;;;;0.60;0.60;;;9.40;99.90;;;;;;5106321;28;20182;-80
2022/10/10 04:41:05;;;;;;;0.70;0.70;;;9.30;99.90;;;;;;5106556;28;20224;-80
2022/10/10 04:43:30;;;;;;;0.70;0.70;;;9.30;99.90;;;;;;5106780;28;20170;-79
2022/10/10 04:45:59;;;;;;;0.50;0.50;;;9.30;99.90;;;;;;5105782;28;20181;-80
2022/10/10 04:48:25;;;;;;;0.60;0.60;;;9.20;99.90;;;;;;5107337;28;20170;-80
2022/10/10 04:50:57;;;;;;;0.70;0.70;;;9.30;99.90;;;;;;5105831;28;20200;-80
2022/10/10 04:53:24;;;;;;;0.63;0.63;;;9.20;99.90;;;;;;5107067;28;20189;-80
2022/10/10 04:55:49;;;;;;;0.70;0.70;;;9.20;99.90;;;;;;5106689;28;20184;-80
2022/10/10 04:58:15;;;;;;;0.67;0.67;;;9.10;99.90;;;;;;5107127;28;20189;-80
2022/10/10 05:00:41;;;;;;;0.60;0.60;;;9.00;99.90;;;;;;5106901;28;20201;-80
2022/10/10 05:03:08;;;;;;;0.50;0.50;;;8.90;99.90;;;;;;5107662;28;20194;-80
2022/10/10 05:05:34;;;;;;;0.60;0.60;;;9.00;99.90;;;;;;5108567;28;20189;-80
2022/10/10 05:07:59;;;;;;;0.60;0.60;;;9.00;99.90;;;;;;5108010;28;20174;-80
2022/10/10 05:10:25;;;;;;;0.60;0.60;;;9.00;99.90;;;;;;5108108;28;20228;-81
2022/10/10 05:12:51;;;;;;;0.60;0.60;;;9.00;99.90;;;;;;5108763;28;20299;-80
2022/10/10 05:15:17;;;;;;;0.60;0.60;;;9.00;99.90;;;;;;5111628;28;20204;-80
2022/10/10 05:17:43;;;;;;;0.60;0.60;;;9.00;99.90;;;;;;5113060;28;20244;-80
2022/10/10 05:20:09;;;;;;;0.60;0.60;;;9.10;99.90;;;;;;5113284;28;20209;-80
2022/10/10 05:22:35;;;;;;;0.57;0.57;;;9.10;99.90;;;;;;5108741;28;20196;-80
2022/10/10 05:25:01;;;;;;;0.50;0.50;;;9.00;99.90;;;;;;5104684;28;20178;-79
2022/10/10 05:27:27;;;;;;;0.60;0.60;;;9.10;99.90;;;;;;5105149;28;20178;-80
2022/10/10 05:29:54;;;;;;;0.50;0.50;;;9.10;99.90;;;;;;5105621;28;20213;-80
2022/10/10 05:32:20;;;;;;;0.60;0.60;;;9.20;99.90;;;;;;5105159;28;20253;-80
2022/10/10 05:34:46;;;;;;;0.60;0.60;;;9.20;99.90;;;;;;5104095;28;20174;-79
2022/10/10 05:37:12;;;;;;;0.60;0.60;;;9.30;99.90;;;;;;5105259;28;20251;-80
2022/10/10 05:39:37;;;;;;;0.70;0.70;;;9.40;99.90;;;;;;5104785;28;20174;-79
2022/10/10 05:42:03;;;;;;;0.60;0.60;;;9.50;99.90;;;;;;5105355;28;20208;-79
2022/10/10 05:44:29;;;;;;;0.70;0.70;;;9.60;99.90;;;;;;5105637;28;20170;-81
2022/10/10 05:46:55;;;;;;;0.70;0.70;;;9.60;99.90;;;;;;5101434;28;20269;-81
2022/10/10 05:49:21;;;;;;;0.70;0.70;;;9.50;99.90;;;;;;5099400;28;20205;-80
2022/10/10 05:51:46;;;;;;;0.50;0.50;;;9.90;99.90;;;;;;5097391;28;20201;-81
2022/10/10 05:54:12;;;;;;;0.60;0.60;;;9.40;99.90;;;;;;5099076;28;20544;-80
2022/10/10 05:56:37;;;;;;;0.60;0.60;;;9.20;99.90;;;;;;5099409;28;20250;-81
2022/10/10 05:59:03;;;;;;;0.70;0.70;;;9.30;99.90;;;;;;5098926;28;20174;-81
2022/10/10 06:01:29;;;;;;;0.60;0.60;;;9.40;99.90;;;;;;5099765;28;20284;-82
2022/10/10 06:03:54;;;;;;;0.50;0.50;;;9.40;99.90;;;;;;5095165;28;20259;-82
2022/10/10 06:06:21;;;;;;;0.60;0.60;;;9.50;99.90;;;;;;5100093;28;20551;-80
2022/10/10 06:08:47;;;;;;;0.60;0.60;;;9.60;99.90;;;;;;5183425;22;20231;-75
2022/10/10 06:11:14;;;;;;;0.70;0.70;;;9.70;99.90;;;;;;5070829;28;20678;-76
2022/10/10 06:13:40;;;;;;;0.50;0.50;;;9.80;99.90;;;;;;5071494;28;20631;-76
2022/10/10 06:16:06;;;;;;;0.53;0.53;;;9.90;99.90;;;;;;5071069;28;20267;-76
2022/10/10 06:18:31;;;;;;;0.70;0.70;;;9.90;99.90;;;;;;5071709;28;20185;-76
2022/10/10 06:21:04;;;;;;;0.57;0.57;;;10.10;99.90;;;;;;5070476;28;20202;-76
2022/10/10 06:23:30;;;;;;;0.70;0.70;;;10.10;99.90;;;;;;5070981;28;20231;-74
2022/10/10 06:25:55;;;;;;;0.50;0.50;;;10.00;99.90;;;;;;5068093;28;20182;-74
2022/10/10 06:28:21;;;;;;;0.60;0.60;;;9.90;99.90;;;;;;5061704;28;20217;-74
2022/10/10 06:30:49;;;;;;;0.70;0.70;;;10.00;99.90;;;;;;5046520;28;20297;-74
2022/10/10 06:33:17;;;;;;;0.60;0.60;;;10.10;99.90;;;;;;5051570;28;20167;-74
2022/10/10 06:35:46;;;;;;;0.53;0.53;;;10.40;99.90;;;;;;5066408;28;20171;-74
2022/10/10 06:38:12;;;;;;;0.63;0.63;;;10.30;99.90;;;;;;5063276;28;20170;-75
2022/10/10 06:40:38;;;;;;;0.63;0.63;;;10.50;99.90;;;;;;5070578;28;20636;-74
2022/10/10 06:43:09;;;;;;;0.53;0.53;;;10.50;99.90;;;;;;5071457;28;20181;-75
2022/10/10 06:45:36;;;;;;;0.60;0.60;;;10.40;99.90;;;;;;5071357;28;20253;-74
2022/10/10 06:48:01;;;;;;;0.57;0.57;;;10.40;99.90;;;;;;5070995;28;20183;-74
2022/10/10 06:50:27;;;;;;;0.60;0.60;;;10.40;99.90;;;;;;5069885;28;20217;-75
2022/10/10 06:52:52;;;;;;;0.50;0.50;;;10.50;99.90;;;;;;5070665;28;20202;-74
2022/10/10 06:55:18;;;;;;;0.70;0.70;;;10.60;99.90;;;;;;5071054;28;20227;-75
2022/10/10 06:57:44;;;;;;;0.43;0.43;;;10.60;99.90;;;;;;5071347;28;20267;-74
2022/10/10 07:00:11;;;;;;;0.50;0.50;;;10.80;99.90;;;;;;5070605;28;20190;-74
2022/10/10 07:02:39;;;;;;;0.60;0.60;;;11.00;99.90;;;;;;5070865;28;20270;-74
2022/10/10 07:05:06;;;;;;;0.47;0.47;;;11.10;99.90;;;;;;5070765;28;20197;-74
2022/10/10 07:07:32;;;;;;;0.50;0.50;;;11.20;99.90;;;;;;5071208;28;20186;-74
2022/10/10 07:09:57;;;;;;;0.63;0.63;;;11.30;99.90;;;;;;5070462;28;20584;-74
2022/10/10 07:12:23;;;;;;;0.60;0.60;;;11.40;99.90;;;;;;5070889;28;20708;-74
2022/10/10 07:14:48;;;;;;;0.50;0.50;;;11.20;99.90;;;;;;5071105;28;20681;-74
2022/10/10 07:17:14;;;;;;;0.43;0.43;;;11.20;99.90;;;;;;5070170;28;20202;-74
2022/10/10 07:19:39;;;;;;;0.60;0.60;;;11.30;99.90;;;;;;5070757;28;20215;-74
2022/10/10 07:22:05;;;;;;;0.60;0.60;;;11.40;99.90;;;;;;5070436;28;20185;-74
2022/10/10 07:24:30;;;;;;;0.60;0.60;;;11.40;99.90;;;;;;5070367;28;20550;-74
2022/10/10 07:26:56;;;;;;;0.60;0.60;;;11.40;99.90;;;;;;5070667;28;20606;-74
2022/10/10 07:29:23;;;;;;;0.50;0.50;;;11.50;99.90;;;;;;5070730;28;20248;-74
2022/10/10 07:31:49;;;;;;;0.50;0.50;;;11.60;99.90;;;;;;5070030;28;20237;-73
2022/10/10 07:34:14;;;;;;;0.60;0.60;;;11.60;99.90;;;;;;5070699;28;20210;-75
2022/10/10 07:36:40;;;;;;;0.60;0.60;;;11.70;99.90;;;;;;5071022;28;20214;-75
2022/10/10 07:39:06;;;;;;;0.50;0.50;;;11.90;99.90;;;;;;5071049;28;20170;-74
2022/10/10 07:41:32;;;;;;;0.50;0.50;;;11.90;99.90;;;;;;5071171;28;20282;-74
2022/10/10 07:43:57;;;;;;;0.40;0.40;;;12.10;99.90;;;;;;5074710;28;20198;-74
2022/10/10 07:46:23;;;;;;;0.50;0.50;;;12.40;99.90;;;;;;5074238;28;20174;-75
2022/10/10 07:48:49;;;;;;;0.50;0.50;;;12.50;99.90;;;;;;5074693;28;20174;-76
2022/10/10 07:51:15;;;;;;;0.30;0.30;;;12.70;99.90;;;;;;5075352;28;20195;-74
2022/10/10 07:53:41;;;;;;;0.50;0.50;;;12.80;99.90;;;;;;5074989;28;20685;-75
2022/10/10 07:56:08;;;;;;;0.60;0.60;;;12.90;93.90;;;;;;5074175;28;20546;-76
2022/10/10 07:58:34;;;;;;;0.40;0.40;;;12.90;99.90;;;;;;5074096;28;20182;-76
2022/10/10 08:01:08;;;;;;;0.50;0.50;;;12.80;99.90;;;;;;5073215;28;20194;-76
2022/10/10 08:03:34;;;;;;;0.50;0.50;;;12.80;99.90;;;;;;5073896;28;20814;-75
2022/10/10 08:06:03;;;;;;;0.50;0.50;;;12.90;99.90;;;;;;5074084;28;20179;-75
2022/10/10 08:08:29;;;;;;;0.60;0.60;;;12.90;99.90;;;;;;5074071;28;20308;-75
2022/10/10 08:10:54;;;;;;;0.40;0.40;;;12.80;99.90;;;;;;5073407;28;20304;-75
2022/10/10 08:13:20;;;;;;;0.50;0.50;;;12.80;99.90;;;;;;5073714;28;20639;-75
2022/10/10 08:15:50;;;;;;;0.50;0.50;;;12.80;99.90;;;;;;5073376;28;20320;-75
2022/10/10 08:18:15;;;;;;;0.40;0.40;;;12.80;99.90;;;;;;5071881;28;20337;-75
2022/10/10 08:20:41;;;;;;;0.50;0.50;;;12.80;99.90;;;;;;5058352;28;20734;-77
2022/10/10 08:23:06;;;;;;;0.40;0.40;;;12.90;99.90;;;;;;5055396;28;20593;-77
2022/10/10 08:25:32;;;;;;;0.50;0.50;;;13.10;99.90;;;;;;5054308;28;20171;-77
2022/10/10 08:27:58;;;;;;;0.50;0.50;;;13.30;99.90;;;;;;5054304;28;20175;-77
2022/10/10 08:30:23;;;;;;;0.50;0.50;;;13.30;99.90;;;;;;5052958;28;20693;-76
2022/10/10 08:32:49;;;;;;;0.50;0.50;;;13.30;99.90;;;;;;5053551;28;20183;-77
2022/10/10 08:35:14;;;;;;;0.40;0.40;;;13.30;99.90;;;;;;5064166;28;20262;-77
2022/10/10 08:37:40;;;;;;;0.57;0.57;;;13.50;99.90;;;;;;5073309;28;20245;-77
2022/10/10 08:40:06;;;;;;;0.50;0.50;;;13.60;99.90;;;;;;5072915;28;20277;-76
2022/10/10 08:42:48;;;;;;;0.50;0.50;;;13.80;99.90;;;;;;5072898;28;20175;-76
2022/10/10 08:45:21;;;;;;;0.50;0.50;;;14.00;91.10;;;;;;5073781;28;20543;-77
2022/10/10 08:47:53;;;;;;;0.50;0.50;;;14.10;78.40;;;;;;5074020;28;20273;-77
2022/10/10 08:50:26;;;;;;;0.50;0.50;;;14.10;98.70;;;;;;5072835;28;20205;-77
2022/10/10 08:53:04;;;;;;;0.53;0.53;;;14.20;99.20;;;;;;5073108;28;20170;-77
2022/10/10 08:55:37;;;;;;;0.40;0.40;;;14.20;99.90;;;;;;5071821;28;20178;-77
2022/10/10 08:58:09;;;;;;;0.40;0.40;;;14.20;99.90;;;;;;5073646;28;20210;-77
2022/10/10 09:00:40;;;;;;;0.40;0.40;;;14.20;99.90;;;;;;5076848;28;20189;-78
2022/10/10 09:03:19;;;;;;;0.60;0.60;;;14.20;97.80;;;;;;5076025;28;20182;-77
2022/10/10 09:06:19;;;;;;;0.50;0.50;;;14.10;93.90;;;;;;5053581;28;20661;-77
2022/10/10 09:09:09;;;;;;;0.40;0.40;;;14.10;99.90;;;;;;5054438;28;20179;-77
2022/10/10 09:12:12;;;;;;;0.53;0.53;;;14.30;99.90;;;;;;5055498;28;20207;-78
2022/10/10 09:14:54;;;;;;;0.50;0.50;;;14.30;99.90;;;;;;5071762;28;20178;-77
2022/10/10 09:17:38;;;;;;;0.53;0.53;;;14.60;93.70;;;;;;5074779;28;20691;-78
2022/10/10 09:20:38;;;;;;;0.40;0.40;;;14.90;6.50;;;;;;5074269;28;20281;-77
2022/10/10 09:23:27;;;;;;;0.40;0.40;;;15.20;1.00;;;;;;5076733;28;20603;-78
2022/10/10 09:26:06;;;;;;;0.47;0.47;;;15.40;1.00;;;;;;5075766;28;20571;-77
2022/10/10 09:28:40;;;;;;;0.70;0.70;;;15.50;1.00;;;;;;5079074;28;20167;-77
2022/10/10 09:31:48;;;;;;;0.40;0.40;;;15.30;1.00;;;;;;5080090;28;20193;-77
2022/10/10 09:34:18;;;;;;;0.40;0.40;;;15.70;1.00;;;;;;5076459;28;20194;-77
2022/10/10 09:36:46;;;;;;;0.53;0.53;;;15.70;1.00;;;;;;5076723;28;20220;-78
2022/10/10 09:39:26;;;;;;;0.47;0.47;;;15.60;1.00;;;;;;5075026;28;20177;-77
2022/10/10 09:42:00;;;;;;;0.30;0.30;;;15.50;1.00;;;;;;5077206;28;20202;-77
2022/10/10 09:44:26;;;;;;;0.50;0.50;;;15.70;1.00;;;;;;5075105;28;20289;-78
2022/10/10 09:46:52;;;;;;;0.50;0.50;;;15.40;1.00;;;;;;5074144;28;20190;-77
2022/10/10 09:49:19;;;;;;;0.30;0.30;;;15.50;1.00;;;;;;5069112;28;20182;-77
2022/10/10 09:51:46;;;;;;;0.40;0.40;;;15.60;1.00;;;;;;5055242;28;20195;-77
2022/10/10 09:54:14;;;;;;;0.40;0.40;;;15.70;1.00;;;;;;5072646;28;20182;-78
2022/10/10 09:56:48;;;;;;;0.40;0.40;;;16.00;1.00;;;;;;5075491;28;20293;-79
2022/10/10 09:59:40;;;;;;;0.40;0.40;;;16.30;1.00;;;;;;5074547;28;20174;-78
2022/10/10 10:02:16;;;;;;;0.30;0.30;;;16.30;1.00;;;;;;5074490;28;20174;-77
2022/10/10 10:04:43;;;;;;;0.40;0.40;;;16.40;1.00;;;;;;5073269;28;20960;-78
2022/10/10 10:07:32;;;;;;;0.40;0.40;;;17.10;99.90;;;;;;5076612;28;20179;-78
2022/10/10 10:10:16;;;;;;;0.40;0.40;;;18.50;99.90;;;;;;5075921;28;20271;-78
2022/10/10 10:12:43;;;;;;;0.30;0.30;;;18.20;1.00;;;;;;5075675;28;20542;-79
2022/10/10 10:15:19;;;;;;;0.30;0.30;;;17.80;99.90;;;;;;5075161;28;20794;-77
2022/10/10 10:17:45;;;;;;;0.30;0.30;;;18.20;99.90;;;;;;5074536;28;20300;-78
2022/10/10 10:20:38;;;;;;;0.30;0.30;;;18.60;1.00;;;;;;5074668;28;20226;-78
2022/10/10 10:23:05;;;;;;;0.30;0.30;;;18.70;99.90;;;;;;5073701;28;20186;-77
2022/10/10 10:25:34;;;;;;;0.30;0.30;;;18.70;1.00;;;;;;5077190;28;20175;-79
2022/10/10 10:28:14;;;;;;;0.30;0.30;;;18.70;99.90;;;;;;5077655;28;20205;-77
2022/10/10 10:30:41;;;;;;;0.40;0.40;;;18.60;99.90;;;;;;5075404;28;20328;-77
2022/10/10 10:33:18;;;;;;;0.33;0.33;;;18.30;1.00;;;;;;5075381;28;20174;-78
2022/10/10 10:36:00;;;;;;;0.30;0.30;;;18.10;99.90;;;;;;5074088;28;20181;-78
2022/10/10 10:38:49;;;;;;;0.40;0.40;;;17.90;99.90;;;;;;5072587;28;20182;-78
2022/10/10 10:41:40;;;;;;;0.30;0.30;;;18.00;1.00;;;;;;5074037;28;20198;-77
2022/10/10 10:44:25;;;;;;;0.30;0.30;;;18.30;1.00;;;;;;5071430;28;20174;-78
2022/10/10 10:47:02;;;;;;;0.30;0.30;;;18.60;1.00;;;;;;5072493;28;20201;-77
2022/10/10 10:49:36;;;;;;;0.30;0.30;;;19.60;1.00;;;;;;5071226;28;20223;-78
2022/10/10 10:52:18;;;;;;;0.40;0.40;;;21.10;99.90;;;;;;5074763;28;20170;-78
2022/10/10 10:55:06;;;;;;;0.40;0.40;;;22.40;1.00;;;;;;5074643;28;20253;-77
2022/10/10 10:57:55;;;;;;;0.50;0.50;;;23.90;1.00;;;;;;5075783;28;20206;-79
2022/10/10 11:00:21;;;;;;;0.40;0.40;;;23.80;1.00;;;;;;5070108;28;20276;-77
2022/10/10 11:03:15;;;;;;;0.40;0.40;;;23.80;1.00;;;;;;5071840;28;20175;-78
2022/10/10 11:06:05;;;;;;;0.40;0.40;;;22.30;1.00;;;;;;5072117;28;20185;-77
2022/10/10 11:08:55;;;;;;;0.40;0.40;;;21.30;99.90;;;;;;5071124;28;20214;-77
2022/10/10 11:11:28;;;;;;;0.33;0.33;;;20.80;99.90;;;;;;5071489;28;20259;-77
2022/10/10 11:14:05;;;;;;;0.50;0.50;;;21.40;99.90;;;;;;5069706;28;20600;-77
2022/10/10 11:16:51;;;;;;;0.43;0.43;;;22.60;25.80;;;;;;5075505;28;20589;-77
2022/10/10 11:19:24;;;;;;;0.50;0.50;;;23.00;1.00;;;;;;5079667;28;20584;-77
2022/10/10 11:21:59;;;;;;;0.40;0.40;;;21.50;29.00;;;;;;5077933;28;20190;-77
2022/10/10 11:24:43;;;;;;;0.50;0.50;;;21.20;98.60;;;;;;5078296;28;20249;-78
2022/10/10 11:27:25;;;;;;;0.40;0.40;;;21.80;1.00;;;;;;5078943;28;20170;-79
2022/10/10 11:30:05;;;;;;;0.40;0.40;;;22.50;1.00;;;;;;5080729;28;20724;-78
2022/10/10 11:32:46;;;;;;;0.50;0.50;;;22.10;1.00;;;;;;5063624;28;20182;-79
2022/10/10 11:35:24;;;;;;;0.43;0.43;;;23.50;1.00;;;;;;5075670;28;20205;-78
2022/10/10 11:37:56;;;;;;;0.50;0.50;;;24.00;1.00;;;;;;5080169;28;20569;-78
2022/10/10 11:40:35;;;;;;;0.60;0.60;;;23.40;1.00;;;;;;5079361;28;20229;-78
2022/10/10 11:43:21;;;;;;;0.60;0.60;;;24.30;1.00;;;;;;5081534;28;20631;-78
2022/10/10 11:45:53;;;;;;;0.47;0.47;;;25.20;1.00;;;;;;5080958;28;20178;-79
2022/10/10 11:48:46;;;;;;;0.40;0.40;;;26.30;1.00;;;;;;5079512;28;20174;-78
2022/10/10 11:51:52;;;;;;;0.60;0.60;;;24.80;1.00;;;;;;5081003;28;20305;-79
2022/10/10 11:54:50;;;;;;;0.50;0.50;;;23.60;1.00;;;;;;5080592;28;20639;-78
2022/10/10 11:57:28;;;;;;;0.40;0.40;;;23.80;1.00;;;;;;5081190;28;20210;-78
2022/10/10 12:00:00;;;;;;;0.50;0.50;;;25.40;1.00;;;;;;5079485;28;20213;-79
2022/10/10 12:02:32;;;;;;;0.60;0.60;;;26.10;1.00;;;;;;5080970;28;20170;-78
2022/10/10 12:04:58;;;;;;;0.50;0.50;;;26.60;1.00;;;;;;5081655;28;20183;-78
2022/10/10 12:07:48;;;;;;;0.60;0.60;;;25.90;1.00;;;;;;5080322;28;20178;-78
2022/10/10 12:10:22;;;;;;;0.43;0.43;;;26.50;1.00;;;;;;5054705;28;20219;-78
2022/10/10 12:12:51;;;;;;;0.60;0.60;;;26.50;1.00;;;;;;5055781;28;20240;-78
2022/10/10 12:15:28;;;;;;;0.60;0.60;;;27.70;1.00;;;;;;5055753;28;20183;-78
2022/10/10 12:17:55;;;;;;;0.60;0.60;;;27.60;1.00;;;;;;5055540;28;20264;-77
2022/10/10 12:20:29;;;;;;;0.70;0.70;;;27.80;1.00;;;;;;5055637;28;20210;-78
2022/10/10 12:23:13;;;;;;;0.60;0.60;;;26.90;1.00;;;;;;5055818;28;20202;-77
2022/10/10 12:25:45;;;;;;;0.60;0.60;;;26.70;1.00;;;;;;5058134;28;20179;-78
2022/10/10 12:28:13;;;;;;;0.60;0.60;;;26.80;1.00;;;;;;5077935;28;20186;-76
2022/10/10 12:30:51;;;;;;;0.60;0.60;;;27.20;1.00;;;;;;5075979;28;20210;-77
2022/10/10 12:33:27;;;;;;;0.60;0.60;;;27.90;1.00;;;;;;5076210;28;20175;-79
2022/10/10 12:35:53;;;;;;;0.60;0.60;;;28.20;1.00;;;;;;5074670;28;20170;-77
2022/10/10 12:38:21;;;;;;;0.50;0.50;;;28.00;1.00;;;;;;5072430;28;20222;-76
2022/10/10 12:40:56;;;;;;;0.60;0.60;;;28.50;1.00;;;;;;5071529;28;20201;-77
2022/10/10 12:43:40;;;;;;;0.60;0.60;;;28.30;1.00;;;;;;5073578;28;20223;-78
2022/10/10 12:46:25;;;;;;;0.70;0.70;;;27.50;1.00;;;;;;5072709;28;20171;-79
2022/10/10 12:49:01;;;;;;;0.60;0.60;;;28.00;1.00;;;;;;5078205;28;20541;-78
2022/10/10 12:51:30;;;;;;;0.60;0.60;;;28.10;1.00;;;;;;5072260;28;20198;-77
2022/10/10 12:53:59;;;;;;;0.50;0.50;;;27.40;1.00;;;;;;5073010;28;20175;-77
2022/10/10 12:56:41;;;;;;;0.60;0.60;;;27.70;1.00;;;;;;5074402;28;20583;-79
2022/10/10 12:59:22;;;;;;;0.40;0.40;;;27.20;1.00;;;;;;5076111;28;20193;-78
2022/10/10 13:02:00;;;;;;;0.40;0.40;;;26.70;1.00;;;;;;5073575;28;20254;-77
2022/10/10 13:04:27;;;;;;;0.40;0.40;;;26.60;1.00;;;;;;5074953;28;20170;-79
2022/10/10 13:06:56;;;;;;;0.50;0.50;;;27.00;1.00;;;;;;5072656;28;20170;-77
2022/10/10 13:09:25;;;;;;;0.40;0.40;;;27.60;1.00;;;;;;5073336;28;20201;-78
2022/10/10 13:11:51;;;;;;;0.40;0.40;;;28.10;1.00;;;;;;5074677;28;20227;-77
2022/10/10 13:14:17;;;;;;;0.50;0.50;;;27.40;1.00;;;;;;5074469;28;20175;-78